EXS3236 LEIB-EGGP
Flight info
| Callsign | EXS3236 |
|---|---|
| Flight time | N/A |
| Altitude | 36000 |
| Route | EPAMA N856 EBROX DCT UMURE DCT XIKEN DCT KARES DCT ARBEK N863 USKAR DCT MOPAS N863 GIROM DCT GONUP DCT MANAK DCT MUREL DCT NOZHU/N0438F370 DCT SHIRI DCT TOJAQ DCT EPACE DCT ACCOP DCT MOCQO P16 PEPZE |
| Aircraft | B738/M-SDE2E3FGHIRWXY/LB1 |
Departure
| Time | 2026-05-01 11:23 |
|---|---|
| Airport | Ibiza Airport (LEIB) |
Arrival
| Time | N/A |
|---|---|
| Airport | Liverpool John Lennon Airport (EGGP) |
| Time | Latitude | Longitude | Altitude | Speed | Heading |
|---|---|---|---|---|---|
| 2026-05-01 11:07 | 38.87438 | 1.36957 | 7 ft | 0 kts | 332° |
| 2026-05-01 11:15 | 38.87447 | 1.36951 | 7 ft | 3 kts | 332° |
| 2026-05-01 11:15 | 38.87469 | 1.36935 | 7 ft | 4 kts | 326° |
| 2026-05-01 11:16 | 38.87479 | 1.36906 | 7 ft | 4 kts | 268° |
| 2026-05-01 11:16 | 38.87468 | 1.36876 | 9 ft | 4 kts | 244° |
| 2026-05-01 11:16 | 38.87457 | 1.36847 | 7 ft | 4 kts | 243° |
| 2026-05-01 11:16 | 38.87444 | 1.36819 | 7 ft | 4 kts | 233° |
| 2026-05-01 11:17 | 38.87418 | 1.36800 | 7 ft | 5 kts | 189° |
| 2026-05-01 11:17 | 38.87388 | 1.36808 | 7 ft | 5 kts | 156° |
| 2026-05-01 11:17 | 38.87359 | 1.36826 | 7 ft | 5 kts | 153° |
| 2026-05-01 11:17 | 38.87328 | 1.36846 | 8 ft | 6 kts | 153° |
| 2026-05-01 11:18 | 38.87286 | 1.36853 | 8 ft | 6 kts | 209° |
| 2026-05-01 11:18 | 38.87262 | 1.36806 | 9 ft | 6 kts | 242° |
| 2026-05-01 11:18 | 38.87242 | 1.36757 | 8 ft | 6 kts | 243° |
| 2026-05-01 11:18 | 38.87228 | 1.36723 | 8 ft | 7 kts | 242° |
| 2026-05-01 11:19 | 38.87205 | 1.36665 | 8 ft | 8 kts | 243° |
| 2026-05-01 11:19 | 38.87179 | 1.36602 | 7 ft | 9 kts | 242° |
| 2026-05-01 11:19 | 38.87143 | 1.36512 | 7 ft | 15 kts | 242° |
| 2026-05-01 11:19 | 38.87085 | 1.36374 | 7 ft | 18 kts | 243° |
| 2026-05-01 11:20 | 38.87026 | 1.36231 | 7 ft | 18 kts | 242° |
| 2026-05-01 11:20 | 38.86970 | 1.36094 | 8 ft | 17 kts | 242° |
| 2026-05-01 11:20 | 38.86915 | 1.35962 | 7 ft | 16 kts | 242° |
| 2026-05-01 11:20 | 38.86885 | 1.35888 | 7 ft | 7 kts | 242° |
| 2026-05-01 11:21 | 38.86862 | 1.35839 | 7 ft | 4 kts | 230° |
| 2026-05-01 11:21 | 38.86842 | 1.35823 | 7 ft | 3 kts | 200° |
| 2026-05-01 11:21 | 38.86823 | 1.35822 | 7 ft | 3 kts | 171° |
| 2026-05-01 11:21 | 38.86803 | 1.35832 | 6 ft | 4 kts | 155° |
| 2026-05-01 11:22 | 38.86758 | 1.35862 | 5 ft | 10 kts | 151° |
| 2026-05-01 11:22 | 38.86725 | 1.35899 | 4 ft | 2 kts | 119° |
| 2026-05-01 11:22 | 38.86721 | 1.35921 | 5 ft | 3 kts | 97° |
| 2026-05-01 11:22 | 38.86724 | 1.35953 | 5 ft | 5 kts | 76° |
| 2026-05-01 11:23 | 38.86809 | 1.36162 | 6 ft | 67 kts | 62° |
| 2026-05-01 11:23 | 38.87167 | 1.37029 | 10 ft | 149 kts | 62° |
| 2026-05-01 11:23 | 38.87690 | 1.38350 | 456 ft | 188 kts | 63° |
| 2026-05-01 11:23 | 38.88290 | 1.40056 | 843 ft | 230 kts | 72° |
| 2026-05-01 11:24 | 38.88702 | 1.42142 | 1567 ft | 246 kts | 77° |
| 2026-05-01 11:24 | 38.89071 | 1.44287 | 2639 ft | 241 kts | 77° |
| 2026-05-01 11:24 | 38.89771 | 1.48259 | 4725 ft | 223 kts | 77° |
| 2026-05-01 11:25 | 38.90124 | 1.50215 | 5494 ft | 227 kts | 77° |
| 2026-05-01 11:25 | 38.91000 | 1.54139 | 6998 ft | 233 kts | 57° |
| 2026-05-01 11:25 | 38.92084 | 1.55781 | 7389 ft | 255 kts | 44° |
| 2026-05-01 11:26 | 38.93472 | 1.57365 | 7730 ft | 276 kts | 41° |
| 2026-05-01 11:26 | 38.96445 | 1.60686 | 9208 ft | 287 kts | 41° |
| 2026-05-01 11:26 | 38.97949 | 1.62402 | 9991 ft | 291 kts | 42° |
| 2026-05-01 11:27 | 38.99474 | 1.64142 | 10743 ft | 295 kts | 39° |
| 2026-05-01 11:27 | 39.01287 | 1.65356 | 11463 ft | 298 kts | 13° |
| 2026-05-01 11:27 | 39.03352 | 1.65745 | 12222 ft | 302 kts | 6° |
| 2026-05-01 11:27 | 39.05463 | 1.66001 | 12906 ft | 306 kts | 5° |
| 2026-05-01 11:28 | 39.07594 | 1.66262 | 13650 ft | 310 kts | 5° |
| 2026-05-01 11:28 | 39.09748 | 1.66317 | 14371 ft | 312 kts | 348° |
| 2026-05-01 11:28 | 39.11823 | 1.65435 | 14673 ft | 329 kts | 336° |
| 2026-05-01 11:29 | 39.16262 | 1.62918 | 15239 ft | 362 kts | 335° |
| 2026-05-01 11:29 | 39.18571 | 1.61582 | 15868 ft | 366 kts | 335° |
| 2026-05-01 11:29 | 39.23254 | 1.58906 | 17198 ft | 371 kts | 335° |
| 2026-05-01 11:30 | 39.25630 | 1.57564 | 17811 ft | 374 kts | 335° |
| 2026-05-01 11:30 | 39.28031 | 1.56211 | 18417 ft | 378 kts | 335° |
| 2026-05-01 11:30 | 39.30451 | 1.54850 | 19010 ft | 381 kts | 335° |
| 2026-05-01 11:30 | 39.32863 | 1.53494 | 19583 ft | 384 kts | 335° |
| 2026-05-01 11:31 | 39.35292 | 1.52128 | 20143 ft | 387 kts | 335° |
| 2026-05-01 11:31 | 39.37785 | 1.50724 | 20691 ft | 390 kts | 335° |
| 2026-05-01 11:31 | 39.40289 | 1.49314 | 21223 ft | 393 kts | 335° |
| 2026-05-01 11:31 | 39.42812 | 1.47892 | 21741 ft | 396 kts | 335° |
| 2026-05-01 11:32 | 39.45347 | 1.46461 | 22244 ft | 399 kts | 335° |
| 2026-05-01 11:32 | 39.47904 | 1.45018 | 22726 ft | 402 kts | 335° |
| 2026-05-01 11:32 | 39.50479 | 1.43563 | 23205 ft | 405 kts | 335° |
| 2026-05-01 11:32 | 39.53073 | 1.42096 | 23671 ft | 408 kts | 335° |
| 2026-05-01 11:33 | 39.55684 | 1.40618 | 24117 ft | 411 kts | 335° |
| 2026-05-01 11:33 | 39.58304 | 1.39134 | 24545 ft | 414 kts | 335° |
| 2026-05-01 11:33 | 39.61003 | 1.37808 | 24943 ft | 418 kts | 347° |
| 2026-05-01 11:33 | 39.63910 | 1.37326 | 25359 ft | 422 kts | 353° |
| 2026-05-01 11:34 | 39.66839 | 1.36991 | 25757 ft | 424 kts | 353° |
| 2026-05-01 11:34 | 39.69782 | 1.36660 | 26105 ft | 428 kts | 353° |
| 2026-05-01 11:34 | 39.72768 | 1.36310 | 26464 ft | 431 kts | 353° |
| 2026-05-01 11:34 | 39.75717 | 1.35949 | 26832 ft | 433 kts | 353° |
| 2026-05-01 11:35 | 39.78719 | 1.35567 | 27174 ft | 436 kts | 352° |
| 2026-05-01 11:35 | 39.81749 | 1.35172 | 27514 ft | 438 kts | 352° |
| 2026-05-01 11:35 | 39.84830 | 1.34765 | 27863 ft | 440 kts | 352° |
| 2026-05-01 11:35 | 39.87846 | 1.34365 | 28188 ft | 443 kts | 352° |
| 2026-05-01 11:36 | 39.90898 | 1.33959 | 28492 ft | 445 kts | 352° |
| 2026-05-01 11:36 | 39.93994 | 1.33547 | 28799 ft | 448 kts | 352° |
| 2026-05-01 11:36 | 39.97098 | 1.33134 | 29090 ft | 450 kts | 352° |
| 2026-05-01 11:36 | 40.00221 | 1.32715 | 29370 ft | 453 kts | 352° |
| 2026-05-01 11:37 | 40.03349 | 1.32299 | 29685 ft | 454 kts | 352° |
| 2026-05-01 11:37 | 40.06493 | 1.31881 | 29992 ft | 455 kts | 352° |
| 2026-05-01 11:37 | 40.09653 | 1.31461 | 30234 ft | 458 kts | 352° |
| 2026-05-01 11:37 | 40.12830 | 1.31036 | 30504 ft | 460 kts | 352° |
| 2026-05-01 11:38 | 40.16014 | 1.30611 | 30771 ft | 461 kts | 352° |
| 2026-05-01 11:38 | 40.19216 | 1.30184 | 31003 ft | 463 kts | 352° |
| 2026-05-01 11:38 | 40.22426 | 1.29756 | 31254 ft | 464 kts | 352° |
| 2026-05-01 11:38 | 40.25638 | 1.29325 | 31571 ft | 464 kts | 352° |
| 2026-05-01 11:39 | 40.28852 | 1.28894 | 31931 ft | 462 kts | 352° |
| 2026-05-01 11:39 | 40.32058 | 1.28463 | 32284 ft | 461 kts | 352° |
| 2026-05-01 11:39 | 40.35207 | 1.28040 | 32607 ft | 460 kts | 352° |
| 2026-05-01 11:39 | 40.38397 | 1.27610 | 32894 ft | 460 kts | 352° |
| 2026-05-01 11:40 | 40.41584 | 1.27180 | 33173 ft | 460 kts | 351° |
| 2026-05-01 11:40 | 40.44771 | 1.26750 | 33466 ft | 459 kts | 351° |
| 2026-05-01 11:40 | 40.47946 | 1.26320 | 33740 ft | 459 kts | 351° |
| 2026-05-01 11:40 | 40.51127 | 1.25888 | 33994 ft | 459 kts | 351° |
| 2026-05-01 11:41 | 40.54308 | 1.25458 | 34252 ft | 459 kts | 351° |
| 2026-05-01 11:41 | 40.57487 | 1.25027 | 34526 ft | 458 kts | 351° |
| 2026-05-01 11:41 | 40.60651 | 1.24597 | 34801 ft | 456 kts | 351° |
| 2026-05-01 11:41 | 40.63803 | 1.24167 | 35078 ft | 455 kts | 351° |
| 2026-05-01 11:42 | 40.66960 | 1.23737 | 35308 ft | 456 kts | 351° |
| 2026-05-01 11:42 | 40.70109 | 1.23308 | 35527 ft | 455 kts | 351° |
| 2026-05-01 11:42 | 40.73270 | 1.22876 | 35782 ft | 454 kts | 351° |
| 2026-05-01 11:42 | 40.76414 | 1.22444 | 36023 ft | 454 kts | 352° |
| 2026-05-01 11:43 | 40.79514 | 1.22018 | 36232 ft | 453 kts | 352° |
| 2026-05-01 11:43 | 40.82689 | 1.21580 | 36415 ft | 454 kts | 352° |
| 2026-05-01 11:43 | 40.85832 | 1.21145 | 36600 ft | 454 kts | 352° |
| 2026-05-01 11:44 | 40.92031 | 1.20290 | 37220 ft | 447 kts | 352° |
| 2026-05-01 11:44 | 40.95110 | 1.19864 | 37539 ft | 443 kts | 352° |
| 2026-05-01 11:44 | 40.98171 | 1.19440 | 37769 ft | 441 kts | 352° |
| 2026-05-01 11:44 | 41.01230 | 1.19015 | 37885 ft | 443 kts | 352° |
| 2026-05-01 11:45 | 41.07371 | 1.18161 | 38143 ft | 444 kts | 352° |
| 2026-05-01 11:45 | 41.13538 | 1.17305 | 38231 ft | 447 kts | 352° |
| 2026-05-01 11:46 | 41.19720 | 1.16553 | 38228 ft | 445 kts | 353° |
| 2026-05-01 11:46 | 41.25880 | 1.15945 | 38237 ft | 441 kts | 353° |
| 2026-05-01 11:47 | 41.31976 | 1.15319 | 38241 ft | 439 kts | 353° |
| 2026-05-01 11:47 | 41.38051 | 1.14689 | 38235 ft | 437 kts | 353° |
| 2026-05-01 11:48 | 41.44071 | 1.14069 | 38235 ft | 437 kts | 353° |
| 2026-05-01 11:48 | 41.50140 | 1.13441 | 38241 ft | 438 kts | 353° |
| 2026-05-01 11:49 | 41.56235 | 1.12805 | 38228 ft | 440 kts | 353° |
| 2026-05-01 11:49 | 41.62351 | 1.12126 | 38226 ft | 442 kts | 353° |
| 2026-05-01 11:50 | 41.68492 | 1.11444 | 38229 ft | 444 kts | 353° |
| 2026-05-01 11:50 | 41.74664 | 1.10781 | 38220 ft | 446 kts | 353° |
| 2026-05-01 11:51 | 41.80861 | 1.10136 | 38218 ft | 447 kts | 353° |
| 2026-05-01 11:51 | 41.87071 | 1.09489 | 38219 ft | 448 kts | 353° |
| 2026-05-01 11:52 | 41.93254 | 1.08837 | 38221 ft | 448 kts | 353° |
| 2026-05-01 11:52 | 41.99462 | 1.08181 | 38217 ft | 447 kts | 353° |
| 2026-05-01 11:53 | 42.05675 | 1.07525 | 38221 ft | 446 kts | 353° |
| 2026-05-01 11:53 | 42.11863 | 1.06861 | 38235 ft | 444 kts | 353° |
| 2026-05-01 11:54 | 42.17993 | 1.06215 | 38229 ft | 444 kts | 353° |
| 2026-05-01 11:54 | 42.24141 | 1.05539 | 38227 ft | 442 kts | 353° |
| 2026-05-01 11:55 | 42.30279 | 1.04859 | 38237 ft | 442 kts | 353° |
| 2026-05-01 11:55 | 42.36412 | 1.04183 | 38223 ft | 441 kts | 353° |
| 2026-05-01 11:56 | 42.42517 | 1.03511 | 38234 ft | 440 kts | 353° |
| 2026-05-01 11:56 | 42.48621 | 1.02844 | 38232 ft | 439 kts | 353° |
| 2026-05-01 11:57 | 42.53686 | 1.02296 | 38225 ft | 439 kts | 353° |
| 2026-05-01 11:57 | 42.60776 | 1.01526 | 38243 ft | 440 kts | 353° |
| 2026-05-01 11:58 | 42.66893 | 1.00858 | 38227 ft | 441 kts | 353° |
| 2026-05-01 11:59 | 42.76095 | 0.99857 | 38223 ft | 443 kts | 353° |
| 2026-05-01 11:59 | 42.82129 | 0.98328 | 38228 ft | 441 kts | 343° |
| 2026-05-01 12:00 | 42.91030 | 0.95108 | 38218 ft | 442 kts | 343° |
| 2026-05-01 12:01 | 42.99964 | 0.91964 | 38216 ft | 442 kts | 344° |
| 2026-05-01 12:01 | 43.05897 | 0.89911 | 38220 ft | 443 kts | 344° |
| 2026-05-01 12:02 | 43.11871 | 0.87844 | 38215 ft | 443 kts | 344° |
| 2026-05-01 12:02 | 43.17844 | 0.85773 | 38222 ft | 442 kts | 344° |
| 2026-05-01 12:03 | 43.23808 | 0.83697 | 38211 ft | 442 kts | 344° |
| 2026-05-01 12:03 | 43.29775 | 0.81616 | 38209 ft | 441 kts | 344° |
| 2026-05-01 12:04 | 43.35721 | 0.79538 | 38213 ft | 441 kts | 344° |
| 2026-05-01 12:04 | 43.41666 | 0.77456 | 38212 ft | 440 kts | 344° |
| 2026-05-01 12:05 | 43.47556 | 0.75208 | 38205 ft | 438 kts | 337° |
| 2026-05-01 12:05 | 43.55056 | 0.70816 | 38210 ft | 438 kts | 334° |
| 2026-05-01 12:06 | 43.60595 | 0.67437 | 38218 ft | 439 kts | 334° |
| 2026-05-01 12:06 | 43.66208 | 0.64069 | 38215 ft | 440 kts | 335° |
| 2026-05-01 12:07 | 43.71837 | 0.60727 | 38209 ft | 442 kts | 335° |
| 2026-05-01 12:07 | 43.77505 | 0.57366 | 38211 ft | 443 kts | 335° |
| 2026-05-01 12:08 | 43.83179 | 0.53998 | 38215 ft | 444 kts | 335° |
| 2026-05-01 12:08 | 43.88871 | 0.50612 | 38211 ft | 445 kts | 335° |
| 2026-05-01 12:09 | 43.94569 | 0.47211 | 38215 ft | 446 kts | 335° |
| 2026-05-01 12:09 | 44.00236 | 0.43823 | 38217 ft | 446 kts | 335° |
| 2026-05-01 12:10 | 44.08793 | 0.38693 | 38214 ft | 446 kts | 335° |
| 2026-05-01 12:11 | 44.17344 | 0.33551 | 38211 ft | 446 kts | 335° |
| 2026-05-01 12:11 | 44.23036 | 0.30118 | 38207 ft | 445 kts | 335° |
| 2026-05-01 12:12 | 44.28710 | 0.26689 | 38209 ft | 444 kts | 335° |
| 2026-05-01 12:12 | 44.34341 | 0.23280 | 38208 ft | 443 kts | 335° |
| 2026-05-01 12:13 | 44.39995 | 0.19849 | 38215 ft | 442 kts | 335° |
| 2026-05-01 12:13 | 44.45631 | 0.16425 | 38206 ft | 441 kts | 335° |
| 2026-05-01 12:14 | 44.51257 | 0.12992 | 38216 ft | 440 kts | 335° |
| 2026-05-01 12:14 | 44.56876 | 0.09561 | 38212 ft | 440 kts | 335° |
| 2026-05-01 12:15 | 44.62458 | 0.06145 | 38206 ft | 441 kts | 335° |
| 2026-05-01 12:15 | 44.68079 | 0.02699 | 38205 ft | 441 kts | 335° |
| 2026-05-01 12:16 | 44.73694 | -0.00751 | 38202 ft | 441 kts | 335° |
| 2026-05-01 12:16 | 44.79317 | -0.04211 | 38201 ft | 441 kts | 334° |
| 2026-05-01 12:17 | 44.84954 | -0.07693 | 38205 ft | 442 kts | 334° |
| 2026-05-01 12:17 | 44.90593 | -0.11183 | 38206 ft | 443 kts | 334° |
| 2026-05-01 12:18 | 44.96256 | -0.14692 | 38206 ft | 445 kts | 334° |
| 2026-05-01 12:18 | 45.01931 | -0.18216 | 38202 ft | 446 kts | 334° |
| 2026-05-01 12:19 | 45.07588 | -0.21742 | 38204 ft | 447 kts | 334° |
| 2026-05-01 12:19 | 45.13289 | -0.25298 | 38202 ft | 448 kts | 334° |
| 2026-05-01 12:20 | 45.18994 | -0.28862 | 38208 ft | 448 kts | 334° |
| 2026-05-01 12:20 | 45.24702 | -0.32437 | 38202 ft | 448 kts | 334° |
| 2026-05-01 12:21 | 45.30393 | -0.36012 | 38196 ft | 446 kts | 333° |
| 2026-05-01 12:21 | 45.36060 | -0.39578 | 38196 ft | 445 kts | 333° |
| 2026-05-01 12:22 | 45.41707 | -0.43141 | 38205 ft | 443 kts | 333° |
| 2026-05-01 12:22 | 45.47312 | -0.46684 | 38207 ft | 442 kts | 333° |
| 2026-05-01 12:23 | 45.52926 | -0.50241 | 38208 ft | 441 kts | 333° |
| 2026-05-01 12:23 | 45.58532 | -0.53796 | 38215 ft | 440 kts | 333° |
| 2026-05-01 12:24 | 45.64130 | -0.57361 | 38218 ft | 440 kts | 333° |
| 2026-05-01 12:24 | 45.69730 | -0.60933 | 38206 ft | 441 kts | 333° |
| 2026-05-01 12:25 | 45.78138 | -0.66310 | 38218 ft | 441 kts | 333° |
| 2026-05-01 12:26 | 45.83750 | -0.69911 | 38212 ft | 443 kts | 333° |
| 2026-05-01 12:26 | 45.92215 | -0.75356 | 38213 ft | 445 kts | 333° |
| 2026-05-01 12:27 | 46.00700 | -0.80824 | 38211 ft | 446 kts | 333° |
| 2026-05-01 12:28 | 46.09160 | -0.86305 | 38211 ft | 447 kts | 333° |
| 2026-05-01 12:29 | 46.17677 | -0.91839 | 38215 ft | 448 kts | 333° |